Time;durP1;ratioP1;P1;durP2;ratioP2;P2;SDS_P1;SDS_P2;PMS_P1;PMS_P2;Temp;Humidity;BMP_temperature;BMP_pressure;BME280_temperature;BME280_humidity;BME280_pressure;Samples;Min_cycle;Max_cycle;Signal;HPM_P1;HPM_P2
2022/12/30 00:01:24;;;;;;;7.27;7.07;;;23.10;52.90;;;;;;5052863;28;20570;-52
2022/12/30 00:03:53;;;;;;;7.00;6.83;;;23.00;52.80;;;;;;5052882;28;20446;-50
2022/12/30 00:06:22;;;;;;;7.50;7.20;;;22.90;52.90;;;;;;5051930;28;20445;-51
2022/12/30 00:08:51;;;;;;;7.27;7.00;;;22.90;53.10;;;;;;5052498;28;20467;-50
2022/12/30 00:11:20;;;;;;;7.53;7.27;;;22.80;53.20;;;;;;5052973;28;20440;-51
2022/12/30 00:33:28;;;;;;;7.30;7.10;;;22.40;53.70;;;;;;5052690;28;20786;-50
2022/12/30 00:35:57;;;;;;;7.20;7.00;;;22.40;53.90;;;;;;5052827;28;20444;-50
2022/12/30 00:38:24;;;;;;;7.57;7.27;;;22.30;53.90;;;;;;5052450;28;20503;-51
2022/12/30 00:43:35;;;;;;;7.70;7.40;;;22.30;54.00;;;;;;5052765;28;20424;-50
2022/12/30 00:46:02;;;;;;;6.90;6.70;;;22.30;54.00;;;;;;5051901;28;20535;-50
2022/12/30 00:56:44;;;;;;;7.73;7.53;;;22.20;54.00;;;;;;5051955;28;20424;-50
2022/12/30 00:59:12;;;;;;;6.97;6.77;;;22.20;54.10;;;;;;5051178;28;20475;-51
2022/12/30 01:01:39;;;;;;;7.40;7.20;;;22.20;54.10;;;;;;5051096;28;20504;-50
2022/12/30 01:04:06;;;;;;;7.10;6.90;;;22.10;54.10;;;;;;5051179;28;20536;-50
2022/12/30 01:06:34;;;;;;;6.93;6.77;;;22.10;54.10;;;;;;5051976;28;20439;-51
2022/12/30 01:09:01;;;;;;;7.23;6.93;;;22.10;54.10;;;;;;5051051;28;20855;-51
2022/12/30 01:11:27;;;;;;;7.27;7.07;;;22.00;54.10;;;;;;5051385;28;20519;-54
2022/12/30 01:13:54;;;;;;;7.27;7.07;;;22.10;54.80;;;;;;5051761;28;20979;-50
2022/12/30 01:16:21;;;;;;;7.77;7.57;;;22.10;54.30;;;;;;5051612;28;20559;-52
2022/12/30 01:18:48;;;;;;;6.80;6.67;;;22.10;54.30;;;;;;5051408;28;21052;-50
2022/12/30 01:21:15;;;;;;;7.30;7.10;;;22.00;54.30;;;;;;5051738;28;20484;-50
2022/12/30 01:23:43;;;;;;;7.07;6.87;;;22.10;54.30;;;;;;5051783;28;20527;-51
2022/12/30 01:26:11;;;;;;;7.13;6.90;;;22.10;54.30;;;;;;5051914;28;20456;-50
2022/12/30 01:28:38;;;;;;;7.40;7.20;;;22.10;54.30;;;;;;5051375;28;20468;-50
2022/12/30 01:31:06;;;;;;;7.70;7.20;;;22.00;54.30;;;;;;5051193;28;20451;-50
2022/12/30 01:33:34;;;;;;;7.10;6.90;;;22.00;54.30;;;;;;5051376;28;20448;-50
2022/12/30 01:36:01;;;;;;;7.00;6.80;;;22.00;54.30;;;;;;5051413;28;20448;-50
2022/12/30 01:38:29;;;;;;;7.03;6.83;;;22.00;54.40;;;;;;5051322;28;21093;-52
2022/12/30 01:40:57;;;;;;;6.97;6.77;;;22.00;54.40;;;;;;5051113;28;20480;-51
2022/12/30 01:43:40;;;;;;;7.40;7.20;;;22.00;54.50;;;;;;5051689;28;20447;-51
2022/12/30 01:46:07;;;;;;;7.30;7.10;;;22.00;54.50;;;;;;5051418;28;20519;-50
2022/12/30 01:48:36;;;;;;;7.07;6.80;;;21.90;54.50;;;;;;5051209;28;20468;-51
2022/12/30 01:51:11;;;;;;;7.53;7.33;;;21.90;54.50;;;;;;5050979;28;20494;-50
2022/12/30 01:53:42;;;;;;;7.83;7.57;;;21.90;54.60;;;;;;5051352;28;20450;-50
2022/12/30 01:56:14;;;;;;;6.90;6.70;;;21.90;54.70;;;;;;5051353;28;20455;-50
2022/12/30 01:58:44;;;;;;;7.50;7.30;;;21.90;54.70;;;;;;5051131;28;20468;-50
2022/12/30 02:01:12;;;;;;;7.20;7.00;;;21.90;54.70;;;;;;5050931;28;20501;-50
2022/12/30 02:03:44;;;;;;;8.00;7.70;;;21.90;54.70;;;;;;5051163;28;20458;-52
2022/12/30 02:06:12;;;;;;;7.00;6.80;;;21.90;54.70;;;;;;5051239;28;20452;-50
2022/12/30 02:08:39;;;;;;;6.83;6.73;;;21.90;54.70;;;;;;5051549;28;20464;-50
2022/12/30 02:11:06;;;;;;;7.10;6.63;;;21.90;54.70;;;;;;5051485;28;20444;-50
2022/12/30 02:13:35;;;;;;;6.40;6.20;;;21.90;54.80;;;;;;5051553;28;20448;-50
2022/12/30 02:16:20;;;;;;;6.90;6.70;;;21.90;54.70;;;;;;5051674;28;20440;-50
2022/12/30 02:19:07;;;;;;;6.67;6.47;;;21.90;54.70;;;;;;5052161;28;20482;-50
2022/12/30 02:21:59;;;;;;;6.80;6.57;;;21.90;54.80;;;;;;5054139;28;20498;-50
2022/12/30 02:24:57;;;;;;;7.80;7.50;;;21.90;54.80;;;;;;5055135;28;20797;-50
2022/12/30 02:27:59;;;;;;;6.20;6.10;;;21.80;54.80;;;;;;5055180;28;20991;-52
2022/12/30 02:30:40;;;;;;;7.20;6.70;;;21.90;54.90;;;;;;5054754;28;20440;-50
2022/12/30 02:33:19;;;;;;;7.00;6.80;;;21.80;54.80;;;;;;5055398;28;20531;-52
2022/12/30 02:35:57;;;;;;;6.57;6.37;;;21.80;54.90;;;;;;5054887;28;20454;-50
2022/12/30 02:38:36;;;;;;;6.70;6.50;;;21.80;54.90;;;;;;5055183;28;20827;-50
2022/12/30 02:46:48;;;;;;;7.00;6.80;;;21.80;55.00;;;;;;5055254;28;20451;-50
2022/12/30 02:49:18;;;;;;;6.67;6.47;;;21.80;55.00;;;;;;5054776;28;20470;-50
2022/12/30 02:54:31;;;;;;;6.87;6.67;;;21.80;54.90;;;;;;5055125;28;20488;-50
2022/12/30 02:56:57;;;;;;;6.63;6.50;;;21.80;54.90;;;;;;5054873;28;20979;-50
2022/12/30 03:05:33;;;;;;;7.03;6.83;;;21.80;54.90;;;;;;5054637;28;20423;-51
2022/12/30 03:08:07;;;;;;;6.47;6.30;;;21.80;54.90;;;;;;5053921;28;20466;-51
2022/12/30 03:13:32;;;;;;;6.30;6.20;;;21.80;54.90;;;;;;5054363;28;20514;-50
2022/12/30 03:16:06;;;;;;;6.77;6.57;;;21.80;55.00;;;;;;5054142;28;20449;-51
2022/12/30 03:18:34;;;;;;;7.10;6.80;;;21.70;55.00;;;;;;5053832;28;20474;-50
2022/12/30 03:21:05;;;;;;;6.90;6.70;;;21.70;55.00;;;;;;5053565;28;20860;-51
2022/12/30 03:29:05;;;;;;;7.30;7.00;;;21.80;55.20;;;;;;5053314;28;20460;-50
2022/12/30 03:31:32;;;;;;;7.17;6.97;;;21.80;55.20;;;;;;5052778;28;20440;-50
2022/12/30 03:33:59;;;;;;;7.10;6.90;;;21.80;55.20;;;;;;5053558;28;20542;-51
2022/12/30 03:36:30;;;;;;;6.87;6.57;;;21.80;55.10;;;;;;5053431;28;20437;-50
2022/12/30 03:39:03;;;;;;;7.00;6.80;;;21.80;55.10;;;;;;5053014;28;20468;-50
2022/12/30 03:41:31;;;;;;;7.00;6.80;;;21.80;55.30;;;;;;5053288;28;20811;-51
2022/12/30 03:43:58;;;;;;;7.13;6.93;;;21.80;55.00;;;;;;5053451;28;20456;-50
2022/12/30 03:46:28;;;;;;;6.80;6.60;;;21.80;55.00;;;;;;5053004;28;20639;-50
2022/12/30 03:48:55;;;;;;;7.20;7.00;;;21.80;55.00;;;;;;5033675;28;20464;-50
2022/12/30 03:51:22;;;;;;;7.00;6.80;;;21.80;55.00;;;;;;5033550;28;20476;-51
2022/12/30 03:53:50;;;;;;;6.80;6.60;;;21.80;55.00;;;;;;5033789;28;20497;-50
2022/12/30 03:56:17;;;;;;;7.23;7.03;;;21.80;55.00;;;;;;5033728;28;20445;-50
2022/12/30 03:58:43;;;;;;;6.80;6.60;;;21.80;55.00;;;;;;5052867;28;20472;-53
2022/12/30 04:01:11;;;;;;;6.17;6.07;;;21.70;54.90;;;;;;5052783;28;20480;-50
2022/12/30 04:03:37;;;;;;;6.80;6.60;;;21.70;54.90;;;;;;5052834;28;20471;-52
2022/12/30 04:06:04;;;;;;;6.23;6.13;;;21.70;54.90;;;;;;5052974;28;20531;-50
2022/12/30 04:08:31;;;;;;;6.47;6.27;;;21.80;55.00;;;;;;5052823;28;20475;-50
2022/12/30 04:10:59;;;;;;;6.40;6.30;;;21.70;55.00;;;;;;5052659;28;20901;-50
2022/12/30 04:13:26;;;;;;;6.50;6.30;;;21.80;55.10;;;;;;5053357;28;20810;-50
2022/12/30 04:15:53;;;;;;;6.60;6.40;;;21.70;55.00;;;;;;5053397;28;20526;-50
2022/12/30 04:18:20;;;;;;;6.20;6.10;;;21.80;55.20;;;;;;5052051;28;20486;-51
2022/12/30 04:20:47;;;;;;;6.50;6.40;;;21.80;55.20;;;;;;5052225;28;20538;-50
2022/12/30 04:23:14;;;;;;;6.73;6.47;;;21.80;55.20;;;;;;5052761;28;20451;-53
2022/12/30 04:25:41;;;;;;;7.07;6.67;;;21.80;55.20;;;;;;5052795;28;20443;-50
2022/12/30 04:28:09;;;;;;;6.40;6.20;;;21.80;55.20;;;;;;5052092;28;20547;-50
2022/12/30 04:30:36;;;;;;;6.53;6.40;;;21.90;55.30;;;;;;5052231;28;20802;-50
2022/12/30 04:33:03;;;;;;;7.10;6.90;;;21.90;55.20;;;;;;5052485;28;20442;-50
2022/12/30 04:35:30;;;;;;;6.50;6.30;;;21.80;55.10;;;;;;5052886;28;20526;-50
2022/12/30 04:37:57;;;;;;;6.40;6.30;;;21.90;55.10;;;;;;5052762;28;20551;-51
2022/12/30 04:40:24;;;;;;;6.50;6.40;;;21.90;55.10;;;;;;5052039;28;20531;-50
2022/12/30 04:42:51;;;;;;;7.73;7.43;;;21.90;55.00;;;;;;5050618;28;21069;-51
2022/12/30 04:45:19;;;;;;;7.10;6.90;;;21.90;55.00;;;;;;5052119;28;20535;-51
2022/12/30 04:47:46;;;;;;;8.77;8.57;;;21.90;55.00;;;;;;5051628;28;20993;-50
2022/12/30 04:50:12;;;;;;;7.60;7.40;;;21.90;54.90;;;;;;5051895;28;20447;-51
2022/12/30 04:52:39;;;;;;;6.60;6.40;;;21.90;54.80;;;;;;5051902;28;21036;-52
2022/12/30 04:55:07;;;;;;;7.27;7.07;;;21.90;55.40;;;;;;5051962;28;20535;-50
2022/12/30 04:57:34;;;;;;;7.20;7.00;;;21.90;54.80;;;;;;5051588;28;20488;-50
2022/12/30 05:00:01;;;;;;;7.00;6.80;;;21.90;54.80;;;;;;5051653;28;20526;-51
2022/12/30 05:02:29;;;;;;;7.13;6.93;;;21.90;55.00;;;;;;5051919;28;20480;-50
2022/12/30 05:04:56;;;;;;;7.47;7.27;;;21.90;54.70;;;;;;5051875;28;20531;-50
2022/12/30 05:07:22;;;;;;;8.53;8.27;;;21.90;54.80;;;;;;5051454;28;20522;-50
2022/12/30 05:09:49;;;;;;;7.60;7.40;;;21.90;54.70;;;;;;5051515;28;20444;-50
2022/12/30 05:12:16;;;;;;;7.03;6.83;;;21.80;54.70;;;;;;5051809;28;20531;-50
2022/12/30 05:14:43;;;;;;;7.30;7.10;;;21.80;54.70;;;;;;5051679;28;20821;-50
2022/12/30 05:17:10;;;;;;;8.80;8.30;;;21.90;54.70;;;;;;5051283;28;20534;-50
2022/12/30 05:19:38;;;;;;;7.90;7.60;;;21.90;54.70;;;;;;5091527;22;20489;-52
2022/12/30 05:22:05;;;;;;;7.67;7.47;;;21.80;54.70;;;;;;5051606;28;20992;-56
2022/12/30 05:27:30;;;;;;;7.10;7.00;;;21.80;54.70;;;;;;5009557;28;20419;-52
2022/12/30 05:29:57;;;;;;;7.93;7.73;;;21.80;54.80;;;;;;5009456;28;20824;-53
2022/12/30 05:32:24;;;;;;;7.83;7.63;;;21.80;54.80;;;;;;5019138;28;20942;-52
2022/12/30 05:34:52;;;;;;;9.03;8.73;;;21.80;54.80;;;;;;5031675;28;20532;-52
2022/12/30 05:37:19;;;;;;;8.20;8.00;;;21.80;54.90;;;;;;5031647;28;20533;-54
2022/12/30 05:39:46;;;;;;;7.40;7.20;;;21.80;54.90;;;;;;5051486;28;21232;-52
2022/12/30 05:42:12;;;;;;;8.03;7.83;;;21.80;54.90;;;;;;5051308;28;20484;-56
2022/12/30 05:44:39;;;;;;;8.70;8.47;;;21.80;54.90;;;;;;5051517;28;20949;-53
2022/12/30 05:47:06;;;;;;;8.57;8.30;;;21.90;55.00;;;;;;5051424;28;20535;-54
2022/12/30 05:49:33;;;;;;;8.30;8.10;;;21.90;55.00;;;;;;5051036;28;20850;-52
2022/12/30 05:52:01;;;;;;;8.00;7.80;;;21.90;55.00;;;;;;5051448;28;20454;-52
2022/12/30 05:54:28;;;;;;;7.73;7.53;;;21.90;54.90;;;;;;5053130;28;20947;-53
2022/12/30 05:56:55;;;;;;;8.30;8.00;;;21.90;54.90;;;;;;5055355;28;20448;-55
2022/12/30 05:59:22;;;;;;;7.30;7.17;;;21.90;54.90;;;;;;5055102;28;20618;-52
2022/12/30 06:01:49;;;;;;;8.33;8.13;;;21.90;54.80;;;;;;5054546;28;20476;-56
2022/12/30 06:04:17;;;;;;;8.30;8.10;;;21.90;54.80;;;;;;5055227;28;20439;-52
2022/12/30 06:06:44;;;;;;;9.00;8.70;;;21.90;54.70;;;;;;5055155;28;20451;-54
2022/12/30 06:09:12;;;;;;;8.17;7.97;;;21.90;54.70;;;;;;5054913;28;20917;-53
2022/12/30 06:11:39;;;;;;;8.57;8.37;;;21.90;54.70;;;;;;5054876;28;20528;-53
2022/12/30 06:14:06;;;;;;;8.87;8.60;;;21.90;54.70;;;;;;5054735;28;20531;-54
2022/12/30 06:16:33;;;;;;;8.67;8.33;;;21.90;54.70;;;;;;5054986;28;20813;-53
2022/12/30 06:18:59;;;;;;;8.30;8.00;;;21.90;54.70;;;;;;5054698;28;20576;-53
2022/12/30 06:21:26;;;;;;;8.80;8.53;;;21.80;54.60;;;;;;5054766;28;20450;-52
2022/12/30 06:23:53;;;;;;;7.77;7.57;;;21.90;54.70;;;;;;5054893;28;20543;-52
2022/12/30 06:26:22;;;;;;;8.40;8.20;;;21.90;54.60;;;;;;5054660;28;21031;-55
2022/12/30 06:28:49;;;;;;;8.10;7.90;;;21.90;54.60;;;;;;5054480;28;20836;-52
2022/12/30 06:31:15;;;;;;;8.53;8.33;;;21.80;54.60;;;;;;5054666;28;20454;-55
2022/12/30 06:33:42;;;;;;;8.70;8.50;;;21.90;55.20;;;;;;5054591;28;20523;-54
2022/12/30 06:36:10;;;;;;;8.00;7.80;;;21.90;54.70;;;;;;5054687;28;20530;-57
2022/12/30 06:38:38;;;;;;;8.33;8.10;;;21.90;54.70;;;;;;5054212;28;20543;-58
2022/12/30 06:41:05;;;;;;;8.47;8.17;;;21.80;54.70;;;;;;5054364;28;20505;-53
2022/12/30 06:43:34;;;;;;;8.10;7.80;;;21.90;54.80;;;;;;5054414;28;20475;-58
2022/12/30 06:46:00;;;;;;;8.57;8.27;;;21.80;54.80;;;;;;5054418;28;20541;-53
2022/12/30 06:48:27;;;;;;;8.33;8.13;;;21.90;54.90;;;;;;5053962;28;20551;-54
2022/12/30 06:51:00;;;;;;;8.97;8.43;;;21.90;54.90;;;;;;5054096;28;20531;-57
2022/12/30 06:53:27;;;;;;;8.27;8.03;;;21.90;54.90;;;;;;5054131;28;20501;-55
2022/12/30 06:55:54;;;;;;;8.80;8.40;;;21.90;54.90;;;;;;5054152;28;20444;-57
2022/12/30 06:58:21;;;;;;;8.80;8.60;;;21.90;55.00;;;;;;5053799;28;20468;-56
2022/12/30 07:00:49;;;;;;;8.67;8.47;;;21.90;55.00;;;;;;5053814;28;20446;-55
2022/12/30 07:03:16;;;;;;;8.60;8.40;;;21.90;55.00;;;;;;5054079;28;21177;-54
2022/12/30 07:05:43;;;;;;;8.10;7.90;;;21.90;55.00;;;;;;5053019;28;20451;-56
2022/12/30 07:08:10;;;;;;;8.17;7.97;;;21.90;55.00;;;;;;5053641;28;20506;-58
2022/12/30 07:10:36;;;;;;;8.30;8.10;;;21.90;55.00;;;;;;5053972;28;20527;-54
2022/12/30 07:13:03;;;;;;;9.03;8.73;;;21.90;55.00;;;;;;5054136;28;20467;-58
2022/12/30 07:15:30;;;;;;;8.30;8.10;;;21.90;55.00;;;;;;5053864;28;20527;-54
2022/12/30 07:17:58;;;;;;;8.83;8.63;;;21.90;55.10;;;;;;5053518;28;21068;-53
2022/12/30 07:20:25;;;;;;;8.83;8.53;;;21.90;55.00;;;;;;5053585;28;20448;-53
2022/12/30 07:22:52;;;;;;;8.47;8.27;;;21.90;55.70;;;;;;5053667;28;20566;-52
2022/12/30 07:25:19;;;;;;;8.10;7.90;;;22.00;55.20;;;;;;5054157;28;20460;-52
2022/12/30 07:27:46;;;;;;;9.30;9.00;;;22.00;55.10;;;;;;5053451;28;20997;-53
2022/12/30 07:30:14;;;;;;;8.60;8.40;;;22.10;55.00;;;;;;5053329;28;20537;-54
2022/12/30 07:32:40;;;;;;;7.67;7.47;;;22.10;54.90;;;;;;5053673;28;20455;-54
2022/12/30 07:35:11;;;;;;;9.30;9.00;;;22.10;54.70;;;;;;5053599;28;20444;-57
2022/12/30 07:37:38;;;;;;;9.10;8.90;;;22.10;54.70;;;;;;5053341;28;20479;-51
2022/12/30 07:40:06;;;;;;;9.60;9.20;;;22.10;54.70;;;;;;5053211;28;20453;-53
2022/12/30 07:42:33;;;;;;;8.50;8.30;;;22.10;54.80;;;;;;5053398;28;20486;-55
2022/12/30 07:45:00;;;;;;;8.57;8.37;;;22.00;54.80;;;;;;5053784;28;20502;-53
2022/12/30 07:47:30;;;;;;;8.50;8.30;;;22.00;55.00;;;;;;5053580;28;20460;-54
2022/12/30 07:49:57;;;;;;;8.50;8.30;;;22.00;55.10;;;;;;5052957;28;20470;-53
2022/12/30 07:52:26;;;;;;;8.10;7.90;;;22.00;55.20;;;;;;5053018;28;20448;-53
2022/12/30 07:54:53;;;;;;;8.73;8.53;;;22.00;55.20;;;;;;5053077;28;20527;-53
2022/12/30 07:57:20;;;;;;;8.70;8.50;;;22.00;55.20;;;;;;5052984;28;20543;-54
2022/12/30 07:59:46;;;;;;;9.07;8.87;;;22.00;55.30;;;;;;5052875;28;20891;-52
2022/12/30 08:02:14;;;;;;;9.23;9.00;;;22.00;55.30;;;;;;5052949;28;20475;-54
2022/12/30 08:04:40;;;;;;;9.13;8.83;;;22.00;55.40;;;;;;5052553;28;20456;-60
2022/12/30 08:07:07;;;;;;;9.50;9.30;;;22.00;55.50;;;;;;5052954;28;20476;-56
2022/12/30 08:09:36;;;;;;;9.30;9.10;;;22.00;55.60;;;;;;5052548;28;21056;-60
2022/12/30 08:12:03;;;;;;;8.87;8.57;;;22.10;55.90;;;;;;5052634;28;20463;-52
2022/12/30 08:14:30;;;;;;;10.97;10.53;;;22.20;56.20;;;;;;5052644;28;20472;-52
2022/12/30 08:16:57;;;;;;;8.90;8.70;;;22.20;55.70;;;;;;5052750;28;20539;-53
2022/12/30 08:19:24;;;;;;;9.73;9.43;;;22.20;55.50;;;;;;5052572;28;20993;-51
2022/12/30 08:21:51;;;;;;;9.83;9.50;;;22.30;56.70;;;;;;5052356;28;21020;-58
2022/12/30 08:24:18;;;;;;;9.53;9.13;;;22.30;57.00;;;;;;5052541;28;20488;-53
2022/12/30 08:26:46;;;;;;;9.37;9.13;;;22.30;56.10;;;;;;5052493;28;20531;-52
2022/12/30 08:29:13;;;;;;;8.87;8.67;;;22.40;56.00;;;;;;5052318;28;20841;-51
2022/12/30 08:31:40;;;;;;;9.87;9.47;;;22.40;56.90;;;;;;5051172;28;20819;-51
2022/12/30 08:34:07;;;;;;;9.67;9.33;;;22.40;56.20;;;;;;5051974;28;20448;-53
2022/12/30 08:36:33;;;;;;;9.83;9.53;;;22.50;56.50;;;;;;5052278;28;20933;-53
2022/12/30 08:39:02;;;;;;;10.00;9.80;;;22.50;56.20;;;;;;5052189;28;20464;-52
2022/12/30 08:41:31;;;;;;;9.33;9.07;;;22.50;56.10;;;;;;5052019;28;20476;-53
2022/12/30 08:44:00;;;;;;;9.77;9.47;;;22.50;56.10;;;;;;5052259;28;21015;-55
2022/12/30 08:46:29;;;;;;;10.33;10.03;;;22.50;56.20;;;;;;5052304;28;20467;-56
2022/12/30 08:48:56;;;;;;;10.13;9.73;;;22.60;56.90;;;;;;5052006;28;20518;-53
2022/12/30 08:51:23;;;;;;;10.47;10.17;;;22.60;57.10;;;;;;5052172;28;20939;-52
2022/12/30 08:53:50;;;;;;;9.87;9.57;;;22.60;56.70;;;;;;5051966;28;20444;-55
2022/12/30 08:56:20;;;;;;;9.73;9.43;;;22.60;56.20;;;;;;5052073;28;20454;-53
2022/12/30 08:58:47;;;;;;;10.23;9.93;;;22.60;56.10;;;;;;5051623;28;21028;-50
2022/12/30 09:01:17;;;;;;;9.73;9.43;;;22.70;56.60;;;;;;5052176;28;20454;-52
2022/12/30 09:03:45;;;;;;;10.20;9.83;;;22.70;56.20;;;;;;5051694;28;20487;-53
2022/12/30 09:06:14;;;;;;;9.63;9.33;;;22.80;56.20;;;;;;5051078;28;20457;-56
2022/12/30 09:08:41;;;;;;;9.90;9.70;;;22.80;56.10;;;;;;5051794;28;20479;-56
2022/12/30 09:11:11;;;;;;;11.27;10.90;;;22.80;55.80;;;;;;5051526;28;20476;-53
2022/12/30 09:13:39;;;;;;;10.67;10.37;;;22.80;56.00;;;;;;5051757;28;20440;-54
2022/12/30 09:16:08;;;;;;;9.53;9.33;;;22.80;55.80;;;;;;5051398;28;20502;-55
2022/12/30 09:18:37;;;;;;;9.90;9.60;;;22.90;55.60;;;;;;5031585;28;21016;-52
2022/12/30 09:21:04;;;;;;;10.00;9.70;;;22.90;55.30;;;;;;5031436;28;20445;-52
2022/12/30 09:23:32;;;;;;;10.33;9.93;;;22.90;55.30;;;;;;5031884;28;20513;-57
2022/12/30 09:25:59;;;;;;;10.03;9.70;;;22.90;55.30;;;;;;5031722;28;20861;-55
2022/12/30 09:28:26;;;;;;;9.93;9.73;;;22.90;55.40;;;;;;5035671;28;20832;-59
2022/12/30 09:30:53;;;;;;;9.53;9.33;;;22.90;55.30;;;;;;5051392;28;20462;-58
2022/12/30 09:33:20;;;;;;;10.03;9.63;;;22.90;55.30;;;;;;5051657;28;20870;-58
2022/12/30 09:35:48;;;;;;;9.97;9.67;;;22.90;55.60;;;;;;5051737;28;20451;-57
2022/12/30 09:38:15;;;;;;;10.10;9.80;;;22.80;55.60;;;;;;5051440;28;20837;-57
2022/12/30 09:40:57;;;;;;;10.50;10.13;;;22.90;55.60;;;;;;5050791;28;20539;-55
2022/12/30 09:43:30;;;;;;;10.10;9.80;;;22.80;55.40;;;;;;5051387;28;20775;-54
2022/12/30 09:46:29;;;;;;;10.20;9.70;;;22.80;55.40;;;;;;5051434;28;20812;-57
2022/12/30 09:49:00;;;;;;;10.17;9.87;;;22.80;55.50;;;;;;5050381;28;20464;-55
2022/12/30 09:51:33;;;;;;;10.13;9.83;;;22.80;55.50;;;;;;5051317;28;20444;-60
2022/12/30 09:54:03;;;;;;;9.80;9.50;;;22.80;56.20;;;;;;5051341;28;20811;-60
2022/12/30 09:56:33;;;;;;;9.53;9.23;;;22.70;55.50;;;;;;5051427;28;20539;-54
2022/12/30 09:59:06;;;;;;;9.80;9.50;;;22.70;55.60;;;;;;5051152;28;20554;-56
2022/12/30 10:01:40;;;;;;;10.00;9.70;;;22.80;55.60;;;;;;5051240;28;20466;-55
2022/12/30 10:04:14;;;;;;;10.30;9.90;;;22.80;55.70;;;;;;5051299;28;20483;-53
2022/12/30 10:06:52;;;;;;;9.83;9.53;;;22.80;55.50;;;;;;5047451;28;20489;-56
2022/12/30 10:09:47;;;;;;;11.07;10.70;;;22.80;55.40;;;;;;5051173;28;21175;-53
2022/12/30 10:12:44;;;;;;;10.10;9.80;;;22.70;55.30;;;;;;5051337;28;20531;-58
2022/12/30 10:15:30;;;;;;;10.20;9.87;;;22.80;56.20;;;;;;5050442;28;20460;-59
2022/12/30 10:18:21;;;;;;;10.50;10.20;;;22.80;55.70;;;;;;5050657;28;20849;-58
2022/12/30 10:21:10;;;;;;;10.67;10.37;;;22.90;56.30;;;;;;5050322;28;20444;-60
2022/12/30 10:23:53;;;;;;;10.60;10.30;;;23.00;56.10;;;;;;5051574;28;20480;-55
2022/12/30 10:26:24;;;;;;;10.10;9.80;;;23.00;55.00;;;;;;5051513;28;20462;-58
2022/12/30 10:28:57;;;;;;;10.57;10.17;;;23.10;54.80;;;;;;5051012;28;20835;-58
2022/12/30 10:31:27;;;;;;;10.80;10.50;;;23.10;55.00;;;;;;5051333;28;20917;-56
2022/12/30 10:34:00;;;;;;;10.53;10.23;;;23.10;54.80;;;;;;5051541;28;20444;-60
2022/12/30 10:36:33;;;;;;;10.40;10.10;;;23.10;54.70;;;;;;5051452;28;20839;-58
2022/12/30 10:39:15;;;;;;;10.20;9.90;;;23.10;54.60;;;;;;5050973;28;20578;-60
2022/12/30 10:41:56;;;;;;;10.50;10.20;;;23.10;54.60;;;;;;5053158;28;20962;-59
2022/12/30 10:44:29;;;;;;;10.37;10.10;;;23.10;54.40;;;;;;5054968;28;20482;-61
2022/12/30 10:47:11;;;;;;;10.37;10.07;;;23.10;54.30;;;;;;5055519;28;20467;-63
2022/12/30 10:50:09;;;;;;;10.50;10.20;;;23.10;54.40;;;;;;5054368;28;20468;-60
2022/12/30 10:52:35;;;;;;;10.03;9.73;;;23.00;54.50;;;;;;5054567;28;20533;-60
2022/12/30 10:55:24;;;;;;;9.70;9.50;;;23.10;54.30;;;;;;5054921;28;20454;-59
2022/12/30 10:57:56;;;;;;;10.33;10.03;;;23.10;54.40;;;;;;5054923;28;20864;-60
2022/12/30 11:00:23;;;;;;;10.77;10.43;;;23.10;54.30;;;;;;5054220;28;20447;-59
2022/12/30 11:02:57;;;;;;;10.23;9.93;;;23.10;54.40;;;;;;5054474;28;20639;-60
2022/12/30 11:05:29;;;;;;;10.27;9.97;;;23.10;54.30;;;;;;5054426;28;20448;-62
2022/12/30 11:07:58;;;;;;;10.40;10.10;;;23.10;54.20;;;;;;5054568;28;20466;-61
2022/12/30 11:10:27;;;;;;;9.97;9.77;;;23.10;54.50;;;;;;5054331;28;20452;-56
2022/12/30 11:15:55;;;;;;;10.40;10.10;;;23.10;54.80;;;;;;5054718;28;20554;-59
2022/12/30 11:18:27;;;;;;;10.03;9.83;;;23.10;54.60;;;;;;5054241;28;20567;-57
2022/12/30 11:20:56;;;;;;;11.20;10.70;;;23.10;54.50;;;;;;5054168;28;20531;-60
2022/12/30 11:23:30;;;;;;;10.00;9.80;;;23.00;54.30;;;;;;5054001;28;20507;-60
2022/12/30 11:26:00;;;;;;;11.10;10.80;;;23.10;54.40;;;;;;5054161;28;20498;-55
2022/12/30 11:28:30;;;;;;;11.33;11.03;;;23.10;54.70;;;;;;5054613;28;20536;-52
2022/12/30 11:31:02;;;;;;;10.13;9.83;;;23.10;53.30;;;;;;5053583;28;20451;-58
2022/12/30 11:33:33;;;;;;;10.17;9.87;;;23.10;55.00;;;;;;5053884;28;20448;-58
2022/12/30 11:36:21;;;;;;;11.00;10.70;;;23.20;54.20;;;;;;5053553;28;20938;-60
2022/12/30 11:38:50;;;;;;;10.17;9.87;;;23.20;53.90;;;;;;5053559;28;20467;-60
2022/12/30 11:41:25;;;;;;;10.53;10.17;;;23.20;53.90;;;;;;5053254;28;20539;-59
2022/12/30 11:44:06;;;;;;;10.57;10.17;;;23.20;53.60;;;;;;5053132;28;20506;-58
2022/12/30 11:46:36;;;;;;;10.43;10.10;;;23.30;54.00;;;;;;5053854;28;20452;-58
2022/12/30 11:49:05;;;;;;;10.40;10.10;;;23.30;53.40;;;;;;5053404;28;20835;-54
2022/12/30 11:51:34;;;;;;;10.50;10.30;;;23.30;53.20;;;;;;5053446;28;20445;-56
2022/12/30 11:54:07;;;;;;;10.37;10.03;;;23.30;53.20;;;;;;5053191;28;20934;-52
2022/12/30 11:56:37;;;;;;;10.67;10.30;;;23.30;53.00;;;;;;5053157;28;20531;-52
2022/12/30 11:59:09;;;;;;;10.50;10.20;;;23.30;53.00;;;;;;5053429;28;20464;-55
2022/12/30 12:01:43;;;;;;;10.23;9.93;;;23.30;52.90;;;;;;5053519;28;20955;-49
2022/12/30 12:04:31;;;;;;;10.00;9.80;;;23.30;52.90;;;;;;5052900;28;20515;-52
2022/12/30 12:06:59;;;;;;;10.27;9.97;;;23.30;52.90;;;;;;5050917;28;20440;-54
2022/12/30 12:09:33;;;;;;;9.90;9.70;;;23.30;52.80;;;;;;5052981;28;20470;-56
2022/12/30 12:12:05;;;;;;;9.73;9.53;;;23.30;52.80;;;;;;5052819;28;20784;-57
2022/12/30 12:14:40;;;;;;;11.20;10.70;;;23.20;52.70;;;;;;5052747;28;20806;-59
2022/12/30 12:17:25;;;;;;;10.87;10.37;;;23.20;52.70;;;;;;5052416;28;20454;-56
2022/12/30 12:19:56;;;;;;;10.03;9.83;;;23.20;52.70;;;;;;5052395;28;20456;-58
2022/12/30 12:22:33;;;;;;;9.80;9.60;;;23.20;52.80;;;;;;5052593;28;20452;-56
2022/12/30 12:25:05;;;;;;;9.80;9.60;;;23.00;52.70;;;;;;5052138;28;20475;-57
2022/12/30 12:27:33;;;;;;;9.80;9.60;;;23.00;52.80;;;;;;5052322;28;20454;-59
2022/12/30 12:30:00;;;;;;;10.83;10.53;;;22.90;52.90;;;;;;5052511;28;20444;-55
2022/12/30 12:32:52;;;;;;;10.40;10.10;;;22.90;53.00;;;;;;5052396;28;20446;-50
2022/12/30 12:35:27;;;;;;;9.97;9.77;;;22.80;53.10;;;;;;5052259;28;20451;-52
2022/12/30 12:38:02;;;;;;;9.30;9.10;;;22.70;53.10;;;;;;5052231;28;20470;-53
2022/12/30 12:41:00;;;;;;;10.00;9.70;;;22.70;53.20;;;;;;5052183;28;20448;-58
2022/12/30 12:43:37;;;;;;;10.50;10.00;;;22.70;53.40;;;;;;5047821;28;20979;-55
2022/12/30 12:46:22;;;;;;;9.67;9.27;;;22.60;53.40;;;;;;5052172;28;20444;-58
2022/12/30 12:49:12;;;;;;;10.00;9.70;;;22.60;53.50;;;;;;5051801;28;20470;-58
2022/12/30 12:51:53;;;;;;;9.77;9.40;;;22.60;53.80;;;;;;5052078;28;20448;-59
2022/12/30 12:54:46;;;;;;;9.87;9.57;;;22.60;53.90;;;;;;5052151;28;20454;-60
2022/12/30 12:57:19;;;;;;;9.97;9.67;;;22.60;54.10;;;;;;5051883;28;20464;-56
2022/12/30 13:00:07;;;;;;;9.53;9.33;;;22.60;54.10;;;;;;5051640;28;20460;-54
2022/12/30 13:03:18;;;;;;;9.20;9.00;;;22.60;54.20;;;;;;5052001;28;20809;-58
2022/12/30 13:05:55;;;;;;;9.53;9.33;;;22.60;54.20;;;;;;5051337;28;20479;-52
2022/12/30 13:08:36;;;;;;;10.33;9.93;;;22.60;54.70;;;;;;5051772;28;20555;-58
2022/12/30 13:11:08;;;;;;;9.67;9.37;;;22.60;54.20;;;;;;5051872;28;20440;-56
2022/12/30 13:13:42;;;;;;;10.00;9.80;;;22.60;54.20;;;;;;5051788;28;20453;-57
2022/12/30 13:16:15;;;;;;;10.20;9.90;;;22.60;54.10;;;;;;5052207;28;20776;-61
2022/12/30 13:18:44;;;;;;;10.03;9.73;;;22.60;54.10;;;;;;5052027;28;20482;-57
2022/12/30 13:21:14;;;;;;;9.33;9.13;;;22.60;54.10;;;;;;5051562;28;20440;-54
2022/12/30 13:23:45;;;;;;;10.47;10.17;;;22.60;54.10;;;;;;5051766;28;20979;-53
2022/12/30 13:26:12;;;;;;;10.27;9.97;;;22.60;54.00;;;;;;5051367;28;20447;-55
2022/12/30 13:28:40;;;;;;;10.67;10.27;;;22.50;54.00;;;;;;5051534;28;20629;-52
2022/12/30 13:31:21;;;;;;;10.50;10.10;;;22.50;54.10;;;;;;5051772;28;20444;-57
2022/12/30 13:33:58;;;;;;;10.63;10.20;;;22.50;54.00;;;;;;5051710;28;20444;-56
2022/12/30 13:36:31;;;;;;;10.03;9.73;;;22.50;54.00;;;;;;5051269;28;20454;-54
2022/12/30 13:39:11;;;;;;;10.93;10.33;;;22.50;54.10;;;;;;5051132;28;20965;-51
2022/12/30 13:42:06;;;;;;;9.70;9.37;;;22.50;54.10;;;;;;5051950;28;20444;-55
2022/12/30 13:44:35;;;;;;;9.43;9.20;;;22.50;54.10;;;;;;5054184;28;21063;-55
2022/12/30 13:47:06;;;;;;;10.13;9.77;;;22.40;54.10;;;;;;5052983;28;20934;-57
2022/12/30 13:49:36;;;;;;;9.93;9.53;;;22.40;54.10;;;;;;5051540;28;20456;-50
2022/12/30 13:52:06;;;;;;;9.90;9.60;;;22.40;54.10;;;;;;5051273;28;20902;-56
2022/12/30 13:54:36;;;;;;;9.60;9.20;;;22.40;54.10;;;;;;5051242;28;20462;-57
2022/12/30 13:57:04;;;;;;;10.57;10.27;;;22.40;54.20;;;;;;5051441;28;20788;-56
2022/12/30 13:59:32;;;;;;;9.80;9.50;;;22.40;54.30;;;;;;5050718;28;20539;-58
2022/12/30 14:02:38;;;;;;;10.30;9.90;;;22.50;54.30;;;;;;5051201;28;20443;-61